createdAt,value
2023-03-30T00:01:26.564Z,1.20
2023-03-30T00:03:55.250Z,0.98
2023-03-30T00:06:23.200Z,1.17
2023-03-30T00:08:58.545Z,1.38
2023-03-30T00:11:27.444Z,1.52
2023-03-30T00:13:55.206Z,1.05
2023-03-30T00:16:22.969Z,1.10
2023-03-30T00:18:51.319Z,1.52
2023-03-30T00:21:20.587Z,1.23
2023-03-30T00:23:48.289Z,1.55
2023-03-30T00:26:16.144Z,1.17
2023-03-30T00:28:43.568Z,0.98
2023-03-30T00:31:11.387Z,1.33
2023-03-30T00:33:46.577Z,1.17
2023-03-30T00:36:15.664Z,0.85
2023-03-30T00:38:43.911Z,1.60
2023-03-30T00:41:11.369Z,1.48
2023-03-30T00:43:59.057Z,0.90
2023-03-30T00:46:26.807Z,1.83
2023-03-30T00:48:57.822Z,1.15
2023-03-30T00:51:28.142Z,2.50
2023-03-30T00:54:02.609Z,1.40
2023-03-30T00:56:30.960Z,1.33
2023-03-30T00:58:58.955Z,1.35
2023-03-30T01:01:31.066Z,1.17
2023-03-30T01:04:05.484Z,1.15
2023-03-30T01:06:34.968Z,1.08
2023-03-30T01:09:02.623Z,1.10
2023-03-30T01:11:29.960Z,1.45
2023-03-30T01:14:06.201Z,1.92
2023-03-30T01:16:40.117Z,1.20
2023-03-30T01:20:19.463Z,2.80
2023-03-30T01:23:19.751Z,1.63
2023-03-30T01:26:39.367Z,1.50
2023-03-30T01:29:44.831Z,1.33
2023-03-30T01:33:07.390Z,1.73
2023-03-30T01:35:54.010Z,1.20
2023-03-30T01:39:09.582Z,1.10
2023-03-30T01:41:56.667Z,1.08
2023-03-30T01:44:53.922Z,0.98
2023-03-30T01:47:53.285Z,1.58
2023-03-30T01:50:23.606Z,1.60
2023-03-30T01:53:15.963Z,1.40
2023-03-30T01:58:36.991Z,1.13
2023-03-30T02:01:10.343Z,1.23
2023-03-30T02:03:44.605Z,1.48
2023-03-30T02:06:43.786Z,1.70
2023-03-30T02:09:16.505Z,1.50
2023-03-30T02:11:48.188Z,1.35
2023-03-30T02:14:18.104Z,1.90
2023-03-30T02:16:51.548Z,1.35
2023-03-30T02:19:19.566Z,1.20
2023-03-30T02:21:48.030Z,1.17
2023-03-30T02:24:25.000Z,0.80
2023-03-30T02:26:54.341Z,0.98
2023-03-30T02:29:23.115Z,1.05
2023-03-30T02:31:53.491Z,1.90
2023-03-30T02:34:25.851Z,1.67
2023-03-30T02:37:27.591Z,1.17
2023-03-30T02:40:12.348Z,1.02
2023-03-30T02:43:09.187Z,1.40
2023-03-30T02:45:43.051Z,1.65
2023-03-30T02:48:31.830Z,1.75
2023-03-30T02:51:33.929Z,1.27
2023-03-30T02:54:51.123Z,1.85
2023-03-30T02:57:40.612Z,1.58
2023-03-30T03:00:52.310Z,1.95
2023-03-30T03:03:37.389Z,1.15
2023-03-30T03:06:05.779Z,1.48
2023-03-30T03:08:41.258Z,2.22
2023-03-30T03:11:12.014Z,0.93
2023-03-30T03:13:39.742Z,2.03
2023-03-30T03:16:11.025Z,1.70
2023-03-30T03:18:40.362Z,1.67
2023-03-30T03:21:09.303Z,1.13
2023-03-30T03:23:37.457Z,1.45
2023-03-30T03:26:06.733Z,2.00
2023-03-30T03:28:35.079Z,1.20
2023-03-30T03:31:07.870Z,2.08
2023-03-30T03:33:36.316Z,1.50
2023-03-30T03:36:11.013Z,1.40
2023-03-30T03:38:43.490Z,2.10
2023-03-30T03:41:10.885Z,1.38
2023-03-30T03:43:39.565Z,1.27
2023-03-30T03:46:07.253Z,1.65
2023-03-30T03:48:37.500Z,2.15
2023-03-30T03:51:05.601Z,1.50
2023-03-30T03:53:34.950Z,1.58
2023-03-30T03:56:06.006Z,1.10
2023-03-30T03:58:34.266Z,1.60
2023-03-30T04:01:03.917Z,1.48
2023-03-30T04:03:32.083Z,1.90
2023-03-30T04:06:01.007Z,1.40
2023-03-30T04:08:29.043Z,2.28
2023-03-30T04:11:11.759Z,1.75
2023-03-30T04:14:05.682Z,1.55
2023-03-30T04:16:58.365Z,1.88
2023-03-30T04:19:38.266Z,1.98
2023-03-30T04:22:26.710Z,1.98
2023-03-30T04:25:27.516Z,1.95
2023-03-30T04:28:14.476Z,1.48
2023-03-30T04:31:05.325Z,1.77
2023-03-30T04:33:53.291Z,1.88
2023-03-30T04:36:43.765Z,1.50
2023-03-30T04:39:23.722Z,1.85
2023-03-30T04:42:14.045Z,1.95
2023-03-30T04:44:54.223Z,1.92
2023-03-30T04:47:40.298Z,2.08
2023-03-30T04:50:39.933Z,3.00
2023-03-30T04:53:37.394Z,2.85
2023-03-30T04:56:33.639Z,2.83
2023-03-30T04:59:21.195Z,3.42
2023-03-30T05:02:11.933Z,3.72
2023-03-30T05:05:09.941Z,2.83
2023-03-30T05:08:00.400Z,2.50
2023-03-30T05:10:47.365Z,2.10
2023-03-30T05:13:17.741Z,2.80
2023-03-30T05:16:11.041Z,2.30
2023-03-30T05:18:58.971Z,3.80
2023-03-30T05:21:44.831Z,2.75
2023-03-30T05:24:31.532Z,2.80
2023-03-30T05:27:31.290Z,2.88
2023-03-30T05:30:19.061Z,2.10
2023-03-30T05:33:05.414Z,2.30
2023-03-30T05:35:51.132Z,1.75
2023-03-30T05:38:42.066Z,2.07
2023-03-30T05:41:32.623Z,2.08
2023-03-30T05:44:08.821Z,2.13
2023-03-30T05:46:56.236Z,1.75
2023-03-30T05:49:29.453Z,1.77
2023-03-30T05:52:07.368Z,1.75
2023-03-30T05:54:57.136Z,1.45
2023-03-30T05:57:31.374Z,1.40
2023-03-30T06:00:14.583Z,1.77
2023-03-30T06:02:53.282Z,1.38
2023-03-30T06:05:24.379Z,1.67
2023-03-30T06:07:51.976Z,1.80
2023-03-30T06:10:19.884Z,1.80
2023-03-30T06:12:48.303Z,2.03
2023-03-30T06:15:31.233Z,1.83
2023-03-30T06:18:13.384Z,1.35
2023-03-30T06:20:50.483Z,1.50
2023-03-30T06:23:18.200Z,1.80
2023-03-30T06:25:53.327Z,1.25
2023-03-30T06:28:26.119Z,2.05
2023-03-30T06:30:54.253Z,1.55
2023-03-30T06:33:25.929Z,1.40
2023-03-30T06:35:58.330Z,1.73
2023-03-30T06:38:25.720Z,1.58
2023-03-30T06:40:55.749Z,2.38
2023-03-30T06:43:26.296Z,1.70
2023-03-30T06:46:00.230Z,2.22
2023-03-30T06:48:27.692Z,1.95
2023-03-30T06:51:15.203Z,1.80
2023-03-30T06:53:44.809Z,2.03
2023-03-30T06:56:12.339Z,1.85
2023-03-30T06:58:54.041Z,2.20
2023-03-30T07:01:21.750Z,2.65
2023-03-30T07:04:12.515Z,2.25
2023-03-30T07:07:00.371Z,1.75
2023-03-30T07:09:28.224Z,1.80
2023-03-30T07:11:56.572Z,1.88
2023-03-30T07:14:24.258Z,2.10
2023-03-30T07:16:53.066Z,2.50
2023-03-30T07:19:20.420Z,3.47
2023-03-30T07:21:47.840Z,1.85
2023-03-30T07:24:17.882Z,2.05
2023-03-30T07:26:45.460Z,1.48
2023-03-30T07:29:13.017Z,1.42
2023-03-30T07:31:43.116Z,1.83
2023-03-30T07:34:12.675Z,1.70
2023-03-30T07:36:46.116Z,1.20
2023-03-30T07:39:13.589Z,1.85
2023-03-30T07:41:43.883Z,1.50
2023-03-30T07:44:11.297Z,2.10
2023-03-30T07:46:38.888Z,1.00
2023-03-30T07:49:06.848Z,1.52
2023-03-30T07:51:34.557Z,2.25
2023-03-30T07:54:10.299Z,2.20
2023-03-30T07:56:52.903Z,1.85
2023-03-30T07:59:21.897Z,2.30
2023-03-30T08:01:54.536Z,2.67
2023-03-30T08:04:44.904Z,3.10
2023-03-30T08:07:14.498Z,2.33
2023-03-30T08:09:42.484Z,1.95
2023-03-30T08:12:09.997Z,1.70
2023-03-30T08:14:37.453Z,2.40
2023-03-30T08:17:04.838Z,1.70
2023-03-30T08:19:32.240Z,2.67
2023-03-30T08:22:01.736Z,1.92
2023-03-30T08:24:29.167Z,3.00
2023-03-30T08:26:56.597Z,1.85
2023-03-30T08:29:23.987Z,2.88
2023-03-30T08:31:52.688Z,2.55
2023-03-30T08:34:20.095Z,2.08
2023-03-30T08:36:47.479Z,2.33
2023-03-30T08:39:15.476Z,1.88
2023-03-30T08:42:00.270Z,1.70
2023-03-30T08:45:05.161Z,2.10
2023-03-30T08:47:39.917Z,2.20
2023-03-30T08:50:08.617Z,1.75
2023-03-30T08:52:36.899Z,2.70
2023-03-30T08:55:04.746Z,2.00
2023-03-30T08:58:03.296Z,2.58
2023-03-30T09:00:49.670Z,2.50
2023-03-30T09:03:28.104Z,2.28
2023-03-30T09:06:12.114Z,1.90
2023-03-30T09:08:39.905Z,2.25
2023-03-30T09:11:15.411Z,2.53
2023-03-30T09:13:45.519Z,2.20
2023-03-30T09:16:30.575Z,2.20
2023-03-30T09:19:00.075Z,2.70
2023-03-30T09:21:31.570Z,3.13
2023-03-30T09:24:02.301Z,2.85
2023-03-30T09:26:57.144Z,1.75
2023-03-30T09:29:32.589Z,2.30
2023-03-30T09:32:14.730Z,2.60
2023-03-30T09:37:27.251Z,2.30
2023-03-30T09:39:55.113Z,1.60
2023-03-30T09:42:48.024Z,1.85
2023-03-30T09:45:32.662Z,1.65
2023-03-30T09:48:08.578Z,1.38
2023-03-30T09:50:54.502Z,1.75
2023-03-30T09:53:29.204Z,1.58
2023-03-30T09:56:04.332Z,2.05
2023-03-30T09:58:34.082Z,4.45
2023-03-30T10:01:18.402Z,1.98
2023-03-30T10:04:32.608Z,2.22
2023-03-30T10:07:06.965Z,2.00
2023-03-30T10:09:44.857Z,1.70
2023-03-30T10:12:14.176Z,2.15
2023-03-30T10:14:41.611Z,1.58
2023-03-30T10:17:16.867Z,1.83
2023-03-30T10:19:49.406Z,2.35
2023-03-30T10:22:24.318Z,2.00
2023-03-30T10:24:56.946Z,1.67
2023-03-30T10:27:37.430Z,3.72
2023-03-30T10:30:24.635Z,1.73
2023-03-30T10:32:53.889Z,2.63
2023-03-30T10:35:39.286Z,1.90
2023-03-30T10:38:08.237Z,2.10
2023-03-30T10:40:39.542Z,1.50
2023-03-30T10:43:14.744Z,1.88
2023-03-30T10:45:47.933Z,1.90
2023-03-30T10:48:36.823Z,2.20
2023-03-30T10:51:40.816Z,1.50
2023-03-30T10:54:26.601Z,1.58
2023-03-30T10:57:08.374Z,1.90
2023-03-30T10:59:45.828Z,1.63
2023-03-30T11:02:44.509Z,1.52
2023-03-30T11:05:22.873Z,1.67
2023-03-30T11:08:12.233Z,1.95
2023-03-30T11:10:44.420Z,1.98
2023-03-30T11:13:24.521Z,2.05
2023-03-30T11:16:04.065Z,1.58
2023-03-30T11:18:43.680Z,1.45
2023-03-30T11:21:41.570Z,2.40
2023-03-30T11:24:23.639Z,1.88
2023-03-30T11:26:56.359Z,1.95
2023-03-30T11:30:16.017Z,2.60
2023-03-30T11:33:07.441Z,1.73
2023-03-30T11:36:06.508Z,1.70
2023-03-30T11:38:47.990Z,1.50
2023-03-30T11:41:22.722Z,1.60
2023-03-30T11:43:55.808Z,1.38
2023-03-30T11:46:43.799Z,1.77
2023-03-30T11:49:57.450Z,1.50
2023-03-30T11:52:52.135Z,1.65
2023-03-30T11:55:41.492Z,1.38
2023-03-30T11:58:36.584Z,1.58
2023-03-30T12:01:15.335Z,1.65
2023-03-30T12:03:52.128Z,1.75
2023-03-30T12:06:58.004Z,1.83
2023-03-30T12:09:33.453Z,2.35
2023-03-30T12:12:15.884Z,2.13
2023-03-30T12:15:18.815Z,1.50
2023-03-30T12:17:51.895Z,1.40
2023-03-30T12:20:53.430Z,1.45
2023-03-30T12:23:42.111Z,1.48
2023-03-30T12:26:30.221Z,1.90
2023-03-30T12:29:56.464Z,1.45
2023-03-30T12:32:05.858Z,1.60
2023-03-30T12:34:38.481Z,1.13
2023-03-30T12:37:13.257Z,1.60
2023-03-30T12:39:53.727Z,1.73
2023-03-30T12:42:35.136Z,1.23
2023-03-30T12:45:32.243Z,1.15
2023-03-30T12:48:20.660Z,1.75
2023-03-30T12:51:12.567Z,1.60
2023-03-30T12:54:01.350Z,1.67
2023-03-30T12:56:56.209Z,2.13
2023-03-30T13:00:09.598Z,1.90
2023-03-30T13:02:55.124Z,1.80
2023-03-30T13:05:40.307Z,1.50
2023-03-30T13:08:16.533Z,1.60
2023-03-30T13:10:44.041Z,1.67
2023-03-30T13:13:44.393Z,1.85
2023-03-30T13:16:14.121Z,2.08
2023-03-30T13:18:54.789Z,1.55
2023-03-30T13:21:23.380Z,2.25
2023-03-30T13:24:28.379Z,1.80
2023-03-30T13:27:22.902Z,1.55
2023-03-30T13:30:02.989Z,1.00
2023-03-30T13:32:47.024Z,1.30
2023-03-30T13:35:31.239Z,1.50
2023-03-30T13:38:51.130Z,1.60
2023-03-30T13:41:50.760Z,1.33
2023-03-30T13:44:32.614Z,1.02
2023-03-30T13:50:00.616Z,0.30
2023-03-30T13:52:38.239Z,0.50
2023-03-30T13:55:22.839Z,0.90
2023-03-30T13:57:53.893Z,0.98
2023-03-30T14:00:45.260Z,0.70
2023-03-30T14:03:44.381Z,0.60
2023-03-30T14:06:14.488Z,1.08
2023-03-30T14:08:46.357Z,0.90
2023-03-30T14:13:42.689Z,0.70
2023-03-30T14:16:23.365Z,0.80
2023-03-30T14:18:51.431Z,0.80
2023-03-30T14:21:23.942Z,0.98
2023-03-30T14:23:55.222Z,0.98
2023-03-30T14:26:28.484Z,0.90
2023-03-30T14:29:03.518Z,1.13
2023-03-30T14:31:40.377Z,1.05
2023-03-30T14:34:25.338Z,1.13
2023-03-30T14:36:59.695Z,1.10
2023-03-30T14:39:27.427Z,1.30
2023-03-30T14:41:56.335Z,1.00
2023-03-30T14:44:24.364Z,1.17
2023-03-30T14:46:56.626Z,1.15
2023-03-30T14:49:31.417Z,1.17
2023-03-30T14:52:14.048Z,1.80
2023-03-30T14:54:51.373Z,1.60
2023-03-30T14:57:26.577Z,1.15
2023-03-30T14:59:59.664Z,0.85
2023-03-30T15:02:32.405Z,1.42
2023-03-30T15:05:00.221Z,1.50
2023-03-30T15:07:31.904Z,1.00
2023-03-30T15:10:00.661Z,0.88
2023-03-30T15:12:35.562Z,1.30
2023-03-30T15:15:06.817Z,1.02
2023-03-30T15:17:35.379Z,0.95
2023-03-30T15:20:06.353Z,1.15
2023-03-30T15:22:49.134Z,0.77
2023-03-30T15:25:23.338Z,0.75
2023-03-30T15:28:04.667Z,0.73
2023-03-30T15:30:39.260Z,0.80
2023-03-30T15:33:08.008Z,1.10
2023-03-30T15:35:37.224Z,0.80
2023-03-30T15:38:15.636Z,0.70
2023-03-30T15:40:46.988Z,0.98
2023-03-30T15:43:30.355Z,0.80
2023-03-30T15:46:13.527Z,1.13
2023-03-30T15:48:50.244Z,0.85
2023-03-30T15:51:42.901Z,0.80
2023-03-30T15:54:13.644Z,1.05
2023-03-30T15:56:48.206Z,1.35
2023-03-30T15:59:18.913Z,0.95
2023-03-30T16:01:54.577Z,0.82
2023-03-30T16:04:24.377Z,0.70
2023-03-30T16:06:52.727Z,0.47
2023-03-30T16:09:20.202Z,0.50
2023-03-30T16:11:47.835Z,0.88
2023-03-30T16:14:19.888Z,1.38
2023-03-30T16:16:47.567Z,0.52
2023-03-30T16:19:23.694Z,0.45
2023-03-30T16:21:51.524Z,0.40
2023-03-30T16:24:18.521Z,0.30
2023-03-30T16:26:46.870Z,0.55
2023-03-30T16:29:23.599Z,0.80
2023-03-30T16:31:51.931Z,0.57
2023-03-30T16:34:19.452Z,0.52
2023-03-30T16:36:47.946Z,0.63
2023-03-30T16:39:29.069Z,0.70
2023-03-30T16:41:56.493Z,0.63
2023-03-30T16:44:25.002Z,0.70
2023-03-30T16:46:52.547Z,0.57
2023-03-30T16:49:25.820Z,0.65
2023-03-30T16:51:56.910Z,0.40
2023-03-30T16:54:32.218Z,1.10
2023-03-30T16:57:01.199Z,0.40
2023-03-30T16:59:30.639Z,0.32
2023-03-30T17:01:58.859Z,0.75
2023-03-30T17:04:26.495Z,1.13
2023-03-30T17:06:54.562Z,0.95
2023-03-30T17:09:22.182Z,0.80
2023-03-30T17:11:49.956Z,0.95
2023-03-30T17:14:17.758Z,0.50
2023-03-30T17:16:44.842Z,0.50
2023-03-30T17:19:13.819Z,0.35
2023-03-30T17:21:43.345Z,0.40
2023-03-30T17:24:11.210Z,0.32
2023-03-30T17:26:39.059Z,0.50
2023-03-30T17:29:06.125Z,0.82
2023-03-30T17:31:33.164Z,0.40
2023-03-30T17:34:00.400Z,0.28
2023-03-30T17:36:28.619Z,0.52
2023-03-30T17:38:56.412Z,0.80
2023-03-30T17:41:23.746Z,0.30
2023-03-30T17:43:51.528Z,0.22
2023-03-30T17:46:19.862Z,0.68
2023-03-30T17:48:47.353Z,0.35
2023-03-30T17:51:14.367Z,0.28
2023-03-30T17:53:41.696Z,0.40
2023-03-30T17:56:12.901Z,0.47
2023-03-30T17:58:39.926Z,0.30
2023-03-30T18:01:11.042Z,0.60
2023-03-30T18:03:39.637Z,0.40
2023-03-30T18:06:07.628Z,0.50
2023-03-30T18:08:35.902Z,0.57
2023-03-30T18:11:03.956Z,0.68
2023-03-30T18:13:31.260Z,0.43
2023-03-30T18:16:01.488Z,0.50
2023-03-30T18:18:30.718Z,0.60
2023-03-30T18:21:03.155Z,0.68
2023-03-30T18:23:31.731Z,0.63
2023-03-30T18:25:59.181Z,0.32
2023-03-30T18:28:28.394Z,0.98
2023-03-30T18:30:57.458Z,0.38
2023-03-30T18:33:25.374Z,0.65
2023-03-30T18:35:56.935Z,0.85
2023-03-30T18:38:25.483Z,0.43
2023-03-30T18:40:57.417Z,0.38
2023-03-30T18:43:26.725Z,0.68
2023-03-30T18:45:57.817Z,0.60
2023-03-30T18:48:27.210Z,0.73
2023-03-30T18:50:55.393Z,0.60
2023-03-30T18:53:28.251Z,0.70
2023-03-30T18:56:00.713Z,0.93
2023-03-30T18:58:31.225Z,0.30
2023-03-30T19:00:58.571Z,1.15
2023-03-30T19:03:28.254Z,0.50
2023-03-30T19:05:56.010Z,0.68
2023-03-30T19:08:26.049Z,0.65
2023-03-30T19:10:58.008Z,1.10
2023-03-30T19:13:26.597Z,0.40
2023-03-30T19:15:54.573Z,0.60
2023-03-30T19:18:22.321Z,0.70
2023-03-30T19:20:51.574Z,0.80
2023-03-30T19:23:21.930Z,0.60
2023-03-30T19:25:49.326Z,0.30
2023-03-30T19:28:16.831Z,0.45
2023-03-30T19:30:44.636Z,0.75
2023-03-30T19:33:20.751Z,0.88
2023-03-30T19:35:47.937Z,0.77
2023-03-30T19:38:15.834Z,1.30
2023-03-30T19:40:43.635Z,0.68
2023-03-30T19:43:10.760Z,0.47
2023-03-30T19:45:38.761Z,0.70
2023-03-30T19:48:06.152Z,0.57
2023-03-30T19:50:33.600Z,0.70
2023-03-30T19:53:01.083Z,0.85
2023-03-30T19:55:28.916Z,1.25
2023-03-30T19:57:56.321Z,0.40
2023-03-30T20:00:23.987Z,0.60
2023-03-30T20:02:54.147Z,0.60
2023-03-30T20:05:24.000Z,0.50
2023-03-30T20:07:51.389Z,0.68
2023-03-30T20:10:24.706Z,0.70
2023-03-30T20:12:52.874Z,0.98
2023-03-30T20:15:22.973Z,0.80
2023-03-30T20:17:56.390Z,0.70
2023-03-30T20:20:25.413Z,0.38
2023-03-30T20:22:56.421Z,0.80
2023-03-30T20:25:24.640Z,1.25
2023-03-30T20:27:52.807Z,0.85
2023-03-30T20:30:20.585Z,0.50
2023-03-30T20:33:03.943Z,1.00
2023-03-30T20:35:38.579Z,0.70
2023-03-30T20:38:08.206Z,0.60
2023-03-30T20:40:35.903Z,0.50
2023-03-30T20:43:03.565Z,0.90
2023-03-30T20:45:31.686Z,1.65
2023-03-30T20:48:00.617Z,1.05
2023-03-30T20:50:28.018Z,0.80
2023-03-30T20:52:55.878Z,0.75
2023-03-30T20:55:23.210Z,0.57
2023-03-30T20:57:50.787Z,0.70
2023-03-30T21:00:18.600Z,0.50
2023-03-30T21:02:46.647Z,0.80
2023-03-30T21:05:13.555Z,0.80
2023-03-30T21:07:42.251Z,0.70
2023-03-30T21:10:09.735Z,1.42
2023-03-30T21:12:37.116Z,0.60
2023-03-30T21:15:04.741Z,0.90
2023-03-30T21:17:31.686Z,0.80
2023-03-30T21:19:59.134Z,1.02
2023-03-30T21:22:26.576Z,1.00
2023-03-30T21:24:53.874Z,0.98
2023-03-30T21:27:21.197Z,0.40
2023-03-30T21:29:48.521Z,0.70
2023-03-30T21:32:15.919Z,0.88
2023-03-30T21:34:43.245Z,0.65
2023-03-30T21:37:10.612Z,0.82
2023-03-30T21:39:38.028Z,1.10
2023-03-30T21:42:05.432Z,0.80
2023-03-30T21:44:36.296Z,1.00
2023-03-30T21:47:03.176Z,1.23
2023-03-30T21:49:30.821Z,0.57
2023-03-30T21:51:58.113Z,0.40
2023-03-30T21:54:25.073Z,0.90
2023-03-30T21:56:52.381Z,1.05
2023-03-30T21:59:19.267Z,1.10
2023-03-30T22:02:11.695Z,0.68
2023-03-30T22:04:39.210Z,0.68
2023-03-30T22:07:06.457Z,0.60
2023-03-30T22:09:33.855Z,0.90
2023-03-30T22:12:01.308Z,1.00
2023-03-30T22:14:28.744Z,0.90
2023-03-30T22:16:57.853Z,0.98
2023-03-30T22:19:25.199Z,0.75
2023-03-30T22:21:52.905Z,0.70
2023-03-30T22:24:20.215Z,0.73
2023-03-30T22:26:49.156Z,0.73
2023-03-30T22:29:17.254Z,0.52
2023-03-30T22:31:44.650Z,0.70
2023-03-30T22:34:12.091Z,0.50
2023-03-30T22:36:40.663Z,0.70
2023-03-30T22:39:09.057Z,0.60
2023-03-30T22:41:36.346Z,0.68
2023-03-30T22:44:03.275Z,0.60
2023-03-30T22:46:30.728Z,0.40
2023-03-30T22:48:57.716Z,0.50
2023-03-30T22:51:28.466Z,0.50
2023-03-30T22:54:00.233Z,0.75
2023-03-30T22:58:56.341Z,0.60
2023-03-30T23:01:23.566Z,0.73
2023-03-30T23:03:52.942Z,0.77
2023-03-30T23:06:20.478Z,1.00
2023-03-30T23:08:48.573Z,0.60
2023-03-30T23:11:16.286Z,0.63
2023-03-30T23:13:43.327Z,0.40
2023-03-30T23:16:10.994Z,0.52
2023-03-30T23:18:38.560Z,1.42
2023-03-30T23:21:07.622Z,0.40
2023-03-30T23:23:36.363Z,0.77
2023-03-30T23:26:10.228Z,0.82
2023-03-30T23:28:39.930Z,1.27
2023-03-30T23:31:15.637Z,0.75
2023-03-30T23:33:43.556Z,0.80
2023-03-30T23:36:16.582Z,0.30
2023-03-30T23:38:43.651Z,0.63
2023-03-30T23:41:13.719Z,0.93
2023-03-30T23:43:40.938Z,0.52
2023-03-30T23:46:09.923Z,0.80
2023-03-30T23:48:37.477Z,1.08
2023-03-30T23:51:05.241Z,0.65
2023-03-30T23:53:32.639Z,0.73
2023-03-30T23:56:00.004Z,0.50
2023-03-30T23:58:27.491Z,0.35
